createdAt,value
2019-06-08T00:01:51.888Z,96.20
2019-06-08T00:04:21.275Z,95.50
2019-06-08T00:06:50.755Z,96.60
2019-06-08T00:09:20.866Z,96.10
2019-06-08T00:11:51.350Z,96.10
2019-06-08T00:14:21.492Z,96.50
2019-06-08T00:16:50.974Z,97.00
2019-06-08T00:19:21.449Z,97.00
2019-06-08T00:21:51.060Z,96.50
2019-06-08T00:24:20.421Z,95.70
2019-06-08T00:26:49.767Z,96.20
2019-06-08T00:29:20.315Z,95.80
2019-06-08T00:31:49.831Z,96.20
2019-06-08T00:34:20.351Z,95.60
2019-06-08T00:36:50.151Z,95.70
2019-06-08T00:39:20.882Z,95.60
2019-06-08T00:41:50.430Z,95.80
2019-06-08T00:44:19.796Z,96.00
2019-06-08T00:46:49.151Z,95.60
2019-06-08T00:49:18.524Z,95.90
2019-06-08T00:51:47.943Z,96.10
2019-06-08T00:54:17.417Z,97.10
2019-06-08T00:56:46.820Z,96.30
2019-06-08T00:59:16.323Z,96.50
2019-06-08T01:01:45.778Z,96.60
2019-06-08T01:04:15.321Z,96.20
2019-06-08T01:06:44.795Z,96.40
2019-06-08T01:09:14.155Z,96.50
2019-06-08T01:11:43.591Z,96.20
2019-06-08T01:14:12.939Z,96.70
2019-06-08T01:16:42.446Z,96.00
2019-06-08T01:19:11.803Z,96.10
2019-06-08T01:21:41.261Z,95.20
2019-06-08T01:24:10.698Z,96.00
2019-06-08T01:26:40.115Z,95.70
2019-06-08T01:29:09.543Z,96.10
2019-06-08T01:31:39.060Z,96.50
2019-06-08T01:34:08.413Z,96.20
2019-06-08T01:36:37.758Z,96.00
2019-06-08T01:39:08.020Z,96.00
2019-06-08T01:41:37.486Z,96.10
2019-06-08T01:44:06.843Z,95.80
2019-06-08T01:46:36.219Z,96.50
2019-06-08T01:49:05.558Z,95.70
2019-06-08T01:51:35.051Z,96.20
2019-06-08T01:54:04.535Z,96.50
2019-06-08T01:56:33.895Z,96.60
2019-06-08T01:59:03.426Z,96.30
2019-06-08T02:01:34.024Z,95.30
2019-06-08T02:04:04.050Z,95.40
2019-06-08T02:06:34.684Z,95.40
2019-06-08T02:09:07.403Z,95.30
2019-06-08T02:11:36.811Z,95.30
2019-06-08T02:14:06.611Z,95.20
2019-06-08T02:16:36.382Z,94.10
2019-06-08T02:19:05.813Z,94.90
2019-06-08T02:21:35.187Z,94.50
2019-06-08T02:24:05.175Z,94.20
2019-06-08T02:26:36.103Z,93.60
2019-06-08T02:29:05.916Z,94.10
2019-06-08T02:31:37.476Z,93.70
2019-06-08T02:34:06.317Z,93.30
2019-06-08T02:36:37.651Z,93.00
2019-06-08T02:39:08.196Z,93.50
2019-06-08T02:41:37.750Z,92.30
2019-06-08T02:44:08.873Z,93.10
2019-06-08T02:46:40.398Z,91.30
2019-06-08T02:49:10.098Z,92.40
2019-06-08T02:51:41.153Z,92.50
2019-06-08T02:54:12.196Z,91.60
2019-06-08T02:56:43.246Z,92.00
2019-06-08T02:59:14.530Z,91.20
2019-06-08T03:01:46.202Z,91.20
2019-06-08T03:04:16.890Z,90.50
2019-06-08T03:06:46.982Z,90.40
2019-06-08T03:09:18.478Z,91.10
2019-06-08T03:11:50.163Z,90.50
2019-06-08T03:14:20.096Z,90.90
2019-06-08T03:16:49.450Z,91.90
2019-06-08T03:19:22.424Z,91.10
2019-06-08T03:21:49.859Z,91.40
2019-06-08T03:24:19.272Z,91.10
2019-06-08T03:26:48.637Z,91.60
2019-06-08T03:29:18.067Z,92.20
2019-06-08T03:31:55.223Z,91.60
2019-06-08T03:34:18.568Z,91.30
2019-06-08T03:36:55.363Z,91.20
2019-06-08T03:39:19.171Z,91.10
2019-06-08T03:41:48.530Z,91.50
2019-06-08T03:44:17.863Z,91.30
2019-06-08T03:46:47.325Z,90.80
2019-06-08T03:49:16.672Z,91.30
2019-06-08T03:51:48.733Z,91.10
2019-06-08T03:54:17.254Z,91.10
2019-06-08T03:56:46.725Z,90.90
2019-06-08T03:59:16.074Z,91.30
2019-06-08T04:01:46.167Z,91.80
2019-06-08T04:04:15.759Z,91.70
2019-06-08T04:06:45.823Z,91.30
2019-06-08T04:09:15.409Z,91.10
2019-06-08T04:11:46.598Z,90.70
2019-06-08T04:14:15.892Z,90.40
2019-06-08T04:16:46.771Z,90.20
2019-06-08T04:19:16.572Z,90.40
2019-06-08T04:21:46.241Z,90.30
2019-06-08T04:24:15.892Z,90.50
2019-06-08T04:26:46.978Z,89.50
2019-06-08T04:29:16.360Z,89.70
2019-06-08T04:31:46.090Z,90.20
2019-06-08T04:34:15.540Z,90.60
2019-06-08T04:36:46.292Z,90.70
2019-06-08T04:39:15.953Z,89.90
2019-06-08T04:41:47.071Z,90.00
2019-06-08T04:44:16.608Z,89.80
2019-06-08T04:46:47.715Z,89.70
2019-06-08T04:49:17.444Z,88.20
2019-06-08T04:51:47.637Z,88.30
2019-06-08T04:54:18.045Z,88.60
2019-06-08T04:56:49.108Z,87.40
2019-06-08T04:59:18.523Z,86.30
2019-06-08T05:01:49.234Z,86.70
2019-06-08T05:04:18.806Z,83.90
2019-06-08T05:06:49.431Z,84.40
2019-06-08T05:09:19.313Z,82.80
2019-06-08T05:11:49.802Z,83.40
2019-06-08T05:14:19.372Z,83.30
2019-06-08T05:16:49.691Z,82.30
2019-06-08T05:19:19.347Z,82.70
2019-06-08T05:21:49.931Z,84.20
2019-06-08T05:24:39.614Z,84.50
2019-06-08T05:27:08.995Z,84.20
2019-06-08T05:29:39.193Z,86.30
2019-06-08T05:32:08.563Z,86.50
2019-06-08T05:34:39.281Z,87.20
2019-06-08T05:37:08.791Z,84.80
2019-06-08T05:39:39.440Z,86.30
2019-06-08T05:42:08.938Z,84.90
2019-06-08T05:44:39.573Z,84.50
2019-06-08T05:47:09.175Z,84.90
2019-06-08T05:49:39.722Z,84.00
2019-06-08T05:52:09.203Z,82.10
2019-06-08T05:54:39.680Z,83.50
2019-06-08T05:57:09.384Z,82.90
2019-06-08T05:59:40.007Z,82.70
2019-06-08T06:02:09.550Z,82.80
2019-06-08T06:04:40.684Z,84.10
2019-06-08T06:07:10.031Z,83.20
2019-06-08T06:09:41.033Z,83.20
2019-06-08T06:12:10.724Z,82.50
2019-06-08T06:14:40.696Z,81.30
2019-06-08T06:17:10.107Z,82.20
2019-06-08T06:19:40.945Z,82.70
2019-06-08T06:22:10.567Z,81.60
2019-06-08T06:24:41.750Z,83.50
2019-06-08T06:27:11.501Z,82.20
2019-06-08T06:29:41.378Z,81.40
2019-06-08T06:32:11.014Z,81.40
2019-06-08T06:34:41.797Z,82.10
2019-06-08T06:37:11.508Z,81.80
2019-06-08T06:39:41.940Z,81.60
2019-06-08T06:42:11.490Z,79.00
2019-06-08T06:44:42.148Z,79.20
2019-06-08T06:47:11.719Z,82.60
2019-06-08T06:49:42.401Z,81.50
2019-06-08T06:52:11.964Z,80.80
2019-06-08T06:54:42.683Z,81.70
2019-06-08T06:57:12.264Z,80.60
2019-06-08T06:59:41.602Z,82.10
2019-06-08T07:02:11.057Z,81.80
2019-06-08T07:04:40.454Z,81.10
2019-06-08T07:07:09.819Z,79.60
2019-06-08T07:09:39.202Z,80.90
2019-06-08T07:12:08.562Z,81.00
2019-06-08T07:14:37.907Z,79.60
2019-06-08T07:17:07.263Z,79.50
2019-06-08T07:19:36.666Z,80.90
2019-06-08T07:22:06.169Z,80.60
2019-06-08T07:24:35.519Z,80.30
2019-06-08T07:27:17.411Z,80.30
2019-06-08T07:29:47.208Z,80.60
2019-06-08T07:32:16.998Z,80.40
2019-06-08T07:34:46.698Z,81.60
2019-06-08T07:37:17.182Z,79.70
2019-06-08T07:39:47.164Z,80.10
2019-06-08T07:42:29.489Z,80.70
2019-06-08T07:45:00.410Z,80.30
2019-06-08T07:47:30.219Z,81.30
2019-06-08T07:49:59.681Z,81.40
2019-06-08T07:52:29.223Z,82.20
2019-06-08T07:54:58.654Z,79.20
2019-06-08T07:57:28.082Z,80.00
2019-06-08T07:59:57.511Z,79.90
2019-06-08T08:02:26.890Z,79.40
2019-06-08T08:04:56.776Z,80.10
2019-06-08T08:07:26.434Z,79.70
2019-06-08T08:09:56.988Z,80.20
2019-06-08T08:12:26.702Z,81.50
2019-06-08T08:14:57.849Z,81.20
2019-06-08T08:17:27.290Z,79.30
2019-06-08T08:19:57.357Z,78.90
2019-06-08T08:22:29.517Z,80.80
2019-06-08T08:25:03.270Z,82.00
2019-06-08T08:27:29.160Z,81.20
2019-06-08T08:30:00.583Z,80.40
2019-06-08T08:32:29.625Z,80.80
2019-06-08T08:35:02.391Z,80.00
2019-06-08T08:37:30.306Z,79.80
2019-06-08T08:40:01.310Z,81.50
2019-06-08T08:42:31.058Z,82.80
2019-06-08T08:45:05.065Z,80.70
2019-06-08T08:47:31.609Z,80.00
2019-06-08T08:50:02.204Z,80.60
2019-06-08T08:52:37.142Z,78.70
2019-06-08T08:55:03.354Z,78.30
2019-06-08T08:57:32.727Z,78.90
2019-06-08T09:00:04.982Z,78.90
2019-06-08T09:02:33.383Z,80.00
2019-06-08T09:05:03.697Z,79.90
2019-06-08T09:07:33.701Z,79.80
2019-06-08T09:10:04.306Z,80.30
2019-06-08T09:12:33.851Z,79.50
2019-06-08T09:15:04.365Z,82.00
2019-06-08T09:17:34.077Z,83.40
2019-06-08T09:20:04.785Z,81.20
2019-06-08T09:22:47.184Z,81.60
2019-06-08T09:25:08.768Z,80.70
2019-06-08T09:27:38.444Z,80.50
2019-06-08T09:30:08.584Z,79.10
2019-06-08T09:32:38.364Z,78.30
2019-06-08T09:35:09.296Z,79.10
2019-06-08T09:37:39.007Z,78.10
2019-06-08T09:40:09.051Z,79.60
2019-06-08T09:42:38.479Z,78.50
2019-06-08T09:45:09.324Z,79.00
2019-06-08T09:47:38.787Z,77.60
2019-06-08T09:50:09.414Z,78.90
2019-06-08T09:52:41.405Z,77.40
2019-06-08T09:55:11.172Z,77.40
2019-06-08T09:57:40.556Z,77.80
2019-06-08T10:00:17.878Z,77.70
2019-06-08T10:02:41.613Z,78.20
2019-06-08T10:05:11.619Z,80.20
2019-06-08T10:07:40.967Z,78.50
2019-06-08T10:10:10.872Z,79.30
2019-06-08T10:12:40.955Z,79.30
2019-06-08T10:15:11.342Z,78.00
2019-06-08T10:17:40.837Z,77.10
2019-06-08T10:20:10.521Z,78.20
2019-06-08T10:22:39.963Z,77.00
2019-06-08T10:25:11.235Z,77.60
2019-06-08T10:27:41.311Z,78.50
2019-06-08T10:30:12.691Z,77.60
2019-06-08T10:32:42.056Z,77.90
2019-06-08T10:35:12.856Z,77.20
2019-06-08T10:37:42.380Z,79.60
2019-06-08T10:40:12.497Z,78.50
2019-06-08T10:42:41.992Z,78.30
2019-06-08T10:45:14.666Z,76.30
2019-06-08T10:47:44.087Z,76.40
2019-06-08T10:50:15.569Z,75.10
2019-06-08T10:52:45.312Z,75.70
2019-06-08T10:55:17.853Z,76.00
2019-06-08T10:57:47.733Z,76.60
2019-06-08T11:00:24.194Z,76.00
2019-06-08T11:02:53.291Z,77.10
2019-06-08T11:05:22.735Z,78.20
2019-06-08T11:07:52.149Z,78.70
2019-06-08T11:10:21.682Z,78.70
2019-06-08T11:12:51.161Z,77.20
2019-06-08T11:15:20.761Z,74.70
2019-06-08T11:17:50.187Z,74.30
2019-06-08T11:20:19.605Z,75.40
2019-06-08T11:22:50.070Z,72.70
2019-06-08T11:25:20.005Z,73.70
2019-06-08T11:27:49.487Z,75.40
2019-06-08T11:30:26.259Z,73.80
2019-06-08T11:32:50.763Z,72.00
2019-06-08T11:35:20.292Z,72.00
2019-06-08T11:37:49.657Z,71.90
2019-06-08T11:40:20.782Z,70.70
2019-06-08T11:42:50.408Z,72.60
2019-06-08T11:45:20.203Z,73.00
2019-06-08T11:47:49.683Z,74.80
2019-06-08T11:50:22.107Z,70.40
2019-06-08T11:52:51.477Z,71.20
2019-06-08T11:55:20.851Z,69.60
2019-06-08T11:57:50.436Z,71.30
2019-06-08T12:00:37.958Z,70.90
2019-06-08T12:03:08.827Z,70.70
2019-06-08T12:05:38.392Z,69.40
2019-06-08T12:08:08.455Z,68.40
2019-06-08T12:10:38.255Z,70.00
2019-06-08T12:13:09.805Z,69.50
2019-06-08T12:15:40.350Z,71.60
2019-06-08T12:18:12.269Z,71.50
2019-06-08T12:20:41.195Z,68.50
2019-06-08T12:23:10.556Z,68.40
2019-06-08T12:25:39.990Z,68.40
2019-06-08T12:28:10.587Z,68.20
2019-06-08T12:30:40.042Z,69.10
2019-06-08T12:33:11.011Z,74.90
2019-06-08T12:35:40.587Z,66.80
2019-06-08T12:38:13.035Z,65.00
2019-06-08T12:40:43.420Z,66.90
2019-06-08T12:43:14.129Z,67.60
2019-06-08T12:45:43.963Z,64.80
2019-06-08T12:48:16.220Z,64.00
2019-06-08T12:50:44.365Z,62.70
2019-06-08T12:53:16.728Z,65.50
2019-06-08T12:55:47.412Z,62.40
2019-06-08T12:58:17.162Z,64.20
2019-06-08T13:00:48.321Z,64.50
2019-06-08T13:03:18.789Z,60.50
2019-06-08T13:05:48.459Z,65.10
2019-06-08T13:08:20.207Z,63.00
2019-06-08T13:10:49.078Z,63.40
2019-06-08T13:13:19.973Z,62.70
2019-06-08T13:15:49.496Z,64.60
2019-06-08T13:18:20.205Z,64.40
2019-06-08T13:20:51.795Z,62.20
2019-06-08T13:23:21.417Z,60.40
2019-06-08T13:25:51.112Z,59.70
2019-06-08T13:28:25.071Z,59.70
2019-06-08T13:30:51.522Z,62.90
2019-06-08T13:33:20.878Z,60.40
2019-06-08T13:35:50.226Z,59.20
2019-06-08T13:38:21.905Z,61.90
2019-06-08T13:40:50.734Z,60.60
2019-06-08T13:43:21.322Z,61.40
2019-06-08T13:45:51.502Z,62.60
2019-06-08T13:48:22.055Z,61.20
2019-06-08T13:50:52.420Z,62.40
2019-06-08T13:53:27.452Z,60.50
2019-06-08T13:55:56.453Z,63.80
2019-06-08T13:58:29.787Z,63.00
2019-06-08T14:00:59.135Z,61.30
2019-06-08T14:03:27.753Z,59.30
2019-06-08T14:05:57.538Z,59.60
2019-06-08T14:08:32.734Z,63.40
2019-06-08T14:11:00.821Z,59.40
2019-06-08T14:13:34.078Z,59.20
2019-06-08T14:16:00.495Z,59.40
2019-06-08T14:18:33.897Z,60.70
2019-06-08T14:21:01.017Z,61.80
2019-06-08T14:23:30.370Z,61.30
2019-06-08T14:26:00.330Z,62.30
2019-06-08T14:28:30.328Z,59.90
2019-06-08T14:31:00.160Z,60.10
2019-06-08T14:33:33.380Z,60.60
2019-06-08T14:36:00.716Z,60.20
2019-06-08T14:38:38.309Z,60.70
2019-06-08T14:41:01.379Z,59.10
2019-06-08T14:43:31.424Z,59.50
2019-06-08T14:46:00.975Z,58.90
2019-06-08T14:48:33.226Z,60.40
2019-06-08T14:51:01.785Z,59.60
2019-06-08T14:53:31.137Z,60.50
2019-06-08T14:56:08.450Z,59.80
2019-06-08T14:58:34.578Z,63.00
2019-06-08T15:01:02.670Z,59.90
2019-06-08T15:03:32.211Z,58.70
2019-06-08T15:06:01.704Z,59.40
2019-06-08T15:08:31.241Z,59.40
2019-06-08T15:11:00.773Z,58.90
2019-06-08T15:13:31.188Z,58.90
2019-06-08T15:16:00.869Z,60.00
2019-06-08T15:18:31.806Z,58.00
2019-06-08T15:21:01.294Z,59.00
2019-06-08T15:23:32.582Z,58.90
2019-06-08T15:26:01.834Z,58.00
2019-06-08T15:28:35.769Z,58.80
2019-06-08T15:31:02.310Z,60.20
2019-06-08T15:33:33.653Z,58.90
2019-06-08T15:36:02.843Z,58.30
2019-06-08T15:38:33.451Z,58.50
2019-06-08T15:41:03.002Z,58.30
2019-06-08T15:43:36.452Z,58.30
2019-06-08T15:46:03.428Z,59.50
2019-06-08T15:48:34.220Z,59.70
2019-06-08T15:51:03.717Z,58.50
2019-06-08T15:53:34.133Z,58.50
2019-06-08T15:56:03.767Z,58.50
2019-06-08T15:58:34.013Z,59.20
2019-06-08T16:01:09.471Z,56.60
2019-06-08T16:03:38.971Z,57.40
2019-06-08T16:06:08.415Z,57.90
2019-06-08T16:08:38.098Z,57.40
2019-06-08T16:11:07.569Z,58.60
2019-06-08T16:13:36.903Z,58.50
2019-06-08T16:16:06.412Z,57.90
2019-06-08T16:18:36.110Z,57.90
2019-06-08T16:21:05.759Z,58.40
2019-06-08T16:23:35.927Z,57.70
2019-06-08T16:26:05.622Z,58.30
2019-06-08T16:28:36.207Z,58.00
2019-06-08T16:31:05.885Z,59.20
2019-06-08T16:33:35.481Z,59.10
2019-06-08T16:36:05.390Z,58.10
2019-06-08T16:38:36.262Z,59.90
2019-06-08T16:41:05.783Z,61.00
2019-06-08T16:43:35.243Z,60.40
2019-06-08T16:46:04.771Z,59.60
2019-06-08T16:48:34.617Z,59.50
2019-06-08T16:51:04.157Z,59.10
2019-06-08T16:53:34.142Z,59.70
2019-06-08T16:56:03.808Z,60.10
2019-06-08T16:58:45.410Z,59.80
2019-06-08T17:01:14.760Z,60.00
2019-06-08T17:03:44.163Z,59.80
2019-06-08T17:06:13.604Z,59.50
2019-06-08T17:08:43.027Z,59.90
2019-06-08T17:11:12.387Z,59.80
2019-06-08T17:13:41.726Z,58.10
2019-06-08T17:16:11.091Z,59.20
2019-06-08T17:18:40.459Z,58.20
2019-06-08T17:21:09.847Z,58.10
2019-06-08T17:23:40.534Z,58.10
2019-06-08T17:26:10.087Z,58.00
2019-06-08T17:28:39.445Z,58.50
2019-06-08T17:31:08.978Z,59.40
2019-06-08T17:33:39.398Z,58.20
2019-06-08T17:36:09.106Z,58.60
2019-06-08T17:38:39.470Z,58.40
2019-06-08T17:41:09.360Z,59.00
2019-06-08T17:43:42.544Z,58.00
2019-06-08T17:46:11.922Z,58.00
2019-06-08T17:48:42.817Z,58.20
2019-06-08T17:51:12.711Z,58.20
2019-06-08T17:53:43.315Z,57.40
2019-06-08T17:56:13.140Z,58.80
2019-06-08T17:58:43.448Z,57.80
2019-06-08T18:01:13.065Z,58.40
2019-06-08T18:03:43.371Z,57.70
2019-06-08T18:06:13.544Z,58.60
2019-06-08T18:08:44.021Z,58.40
2019-06-08T18:11:13.988Z,58.50
2019-06-08T18:13:44.460Z,59.00
2019-06-08T18:16:16.979Z,58.80
2019-06-08T18:18:48.086Z,56.90
2019-06-08T18:21:17.945Z,58.50
2019-06-08T18:23:48.197Z,59.30
2019-06-08T18:26:17.691Z,59.90
2019-06-08T18:28:48.602Z,58.30
2019-06-08T18:31:18.308Z,57.40
2019-06-08T18:33:50.197Z,59.00
2019-06-08T18:36:18.882Z,58.20
2019-06-08T18:38:48.653Z,58.10
2019-06-08T18:41:18.183Z,58.10
2019-06-08T18:43:48.941Z,58.70
2019-06-08T18:46:18.775Z,59.70
2019-06-08T18:48:49.299Z,59.40
2019-06-08T18:51:19.048Z,60.40
2019-06-08T18:54:07.400Z,60.50
2019-06-08T18:56:22.264Z,61.30
2019-06-08T18:58:53.647Z,59.50
2019-06-08T19:01:23.728Z,60.10
2019-06-08T19:03:53.319Z,61.10
2019-06-08T19:06:23.514Z,62.00
2019-06-08T19:08:54.182Z,61.80
2019-06-08T19:11:23.582Z,61.50
2019-06-08T19:13:54.255Z,61.20
2019-06-08T19:16:23.727Z,63.10
2019-06-08T19:18:53.183Z,62.20
2019-06-08T19:21:22.642Z,64.80
2019-06-08T19:23:52.130Z,63.60
2019-06-08T19:26:21.659Z,64.00
2019-06-08T19:28:53.888Z,65.40
2019-06-08T19:31:22.328Z,64.40
2019-06-08T19:33:53.452Z,62.70
2019-06-08T19:36:22.805Z,65.80
2019-06-08T19:38:54.621Z,65.40
2019-06-08T19:41:23.302Z,66.30
2019-06-08T19:43:54.673Z,65.50
2019-06-08T19:46:24.084Z,66.70
2019-06-08T19:48:55.543Z,68.90
2019-06-08T19:51:24.489Z,68.00
2019-06-08T19:53:55.033Z,69.10
2019-06-08T19:56:24.556Z,69.50
2019-06-08T19:59:01.830Z,69.60
2019-06-08T20:01:27.486Z,69.40
2019-06-08T20:04:00.416Z,69.80
2019-06-08T20:06:27.942Z,70.40
2019-06-08T20:08:57.731Z,70.40
2019-06-08T20:11:29.231Z,70.30
2019-06-08T20:13:58.247Z,70.90
2019-06-08T20:16:27.922Z,70.70
2019-06-08T20:18:58.380Z,71.10
2019-06-08T20:21:28.019Z,71.70
2019-06-08T20:23:58.493Z,72.30
2019-06-08T20:26:28.572Z,72.10
2019-06-08T20:29:12.269Z,73.50
2019-06-08T20:31:29.349Z,73.20
2019-06-08T20:33:58.701Z,73.90
2019-06-08T20:36:28.866Z,73.90
2019-06-08T20:38:58.687Z,74.70
2019-06-08T20:41:28.076Z,74.50
2019-06-08T20:43:57.979Z,75.20
2019-06-08T20:46:28.605Z,75.40
2019-06-08T20:48:58.399Z,76.00
2019-06-08T20:51:27.985Z,76.10
2019-06-08T20:53:57.520Z,76.10
2019-06-08T20:56:28.144Z,75.80
2019-06-08T20:58:57.609Z,75.90
2019-06-08T21:01:26.973Z,75.60
2019-06-08T21:03:57.169Z,75.90
2019-06-08T21:06:27.994Z,76.20
2019-06-08T21:08:59.570Z,76.10
2019-06-08T21:11:28.675Z,76.20
2019-06-08T21:13:58.030Z,76.80
2019-06-08T21:16:27.779Z,76.80
2019-06-08T21:18:57.998Z,76.90
2019-06-08T21:21:28.306Z,76.30
2019-06-08T21:24:00.889Z,76.20
2019-06-08T21:26:29.094Z,76.30
2019-06-08T21:29:00.318Z,76.80
2019-06-08T21:31:29.765Z,77.50
2019-06-08T21:34:00.745Z,77.80
2019-06-08T21:36:30.477Z,78.20
2019-06-08T21:39:02.311Z,78.30
2019-06-08T21:41:30.962Z,78.30
2019-06-08T21:44:02.001Z,78.30
2019-06-08T21:46:31.427Z,78.90
2019-06-08T21:49:00.760Z,79.30
2019-06-08T21:51:30.191Z,80.00
2019-06-08T21:54:00.585Z,80.00
2019-06-08T21:56:30.372Z,79.70
2019-06-08T21:59:01.113Z,81.10
2019-06-08T22:01:32.827Z,80.90
2019-06-08T22:04:02.454Z,80.70
2019-06-08T22:06:31.946Z,80.10
2019-06-08T22:09:02.845Z,81.30
2019-06-08T22:11:32.528Z,80.30
2019-06-08T22:14:03.036Z,80.90
2019-06-08T22:16:32.565Z,81.00
2019-06-08T22:19:03.254Z,81.40
2019-06-08T22:21:32.902Z,81.00
2019-06-08T22:24:03.492Z,81.60
2019-06-08T22:26:32.987Z,81.50
2019-06-08T22:29:03.632Z,81.80
2019-06-08T22:31:33.166Z,82.50
2019-06-08T22:34:03.895Z,81.90
2019-06-08T22:36:33.450Z,82.80
2019-06-08T22:39:03.830Z,82.40
2019-06-08T22:41:33.316Z,82.10
2019-06-08T22:44:03.154Z,82.30
2019-06-08T22:46:32.535Z,82.20
2019-06-08T22:49:02.775Z,83.00
2019-06-08T22:51:33.075Z,83.50
2019-06-08T22:54:03.684Z,83.00
2019-06-08T22:56:33.462Z,83.30
2019-06-08T22:59:04.775Z,83.30
2019-06-08T23:01:33.980Z,83.50
2019-06-08T23:04:04.342Z,82.70
2019-06-08T23:06:34.470Z,83.20
2019-06-08T23:09:05.645Z,83.40
2019-06-08T23:11:37.553Z,83.50
2019-06-08T23:14:12.985Z,84.90
2019-06-08T23:16:38.263Z,84.40
2019-06-08T23:19:08.053Z,85.00
2019-06-08T23:21:38.258Z,84.80
2019-06-08T23:24:08.497Z,84.50
2019-06-08T23:26:38.147Z,84.00
2019-06-08T23:29:09.544Z,84.30
2019-06-08T23:31:38.889Z,84.20
2019-06-08T23:34:11.088Z,84.10
2019-06-08T23:36:52.048Z,85.10
2019-06-08T23:39:10.927Z,84.60
2019-06-08T23:41:40.290Z,85.00
2019-06-08T23:44:09.790Z,85.60
2019-06-08T23:46:39.220Z,85.30
2019-06-08T23:49:09.096Z,85.90
2019-06-08T23:51:38.522Z,85.60
2019-06-08T23:54:12.029Z,84.60
2019-06-08T23:56:39.096Z,86.00
2019-06-08T23:59:09.421Z,86.60
